TimeEST,TemperatureF,Dew PointF,Humidity,Sea Level PressureIn,VisibilityMPH,Wind Direction,Wind SpeedMPH,Gust SpeedMPH,PrecipitationIn,Events,Conditions,WindDirDegrees,DateUTC
12:15 AM,35.6,33.8,93,29.03,2.5,West,3.5,-,0.01,,Overcast,260,2014-02-14 05:15:00
12:35 AM,35.6,33.8,93,29.04,3.0,WNW,3.5,-,0.03,,Overcast,300,2014-02-14 05:35:00
12:55 AM,33.8,33.8,100,29.04,2.5,NW,4.6,-,0.06,,Overcast,310,2014-02-14 05:55:00
1:15 AM,33.8,32.0,93,29.05,3.0,ESE,3.5,-,0.01,,Overcast,120,2014-02-14 06:15:00
1:35 AM,33.8,32.0,93,29.06,1.5,West,3.5,-,0.04,,Overcast,280,2014-02-14 06:35:00
1:55 AM,33.8,32.0,93,29.06,2.0,Calm,Calm,-,0.07,,Overcast,0,2014-02-14 06:55:00
2:15 AM,33.8,32.0,93,29.07,2.0,Calm,Calm,-,0.02,,Overcast,0,2014-02-14 07:15:00
2:35 AM,33.8,32.0,93,29.07,1.2,Calm,Calm,-,0.05,,Overcast,0,2014-02-14 07:35:00
2:55 AM,33.8,32.0,93,29.07,1.2,Calm,Calm,-,0.07,,Overcast,0,2014-02-14 07:55:00
3:15 AM,33.8,32.0,93,29.08,1.8,WNW,3.5,-,0.02,,Overcast,290,2014-02-14 08:15:00
3:35 AM,33.8,32.0,93,29.09,1.8,Calm,Calm,-,0.03,,Overcast,0,2014-02-14 08:35:00
3:55 AM,33.8,32.0,93,29.09,2.5,NW,3.5,-,0.04,,Overcast,320,2014-02-14 08:55:00
4:15 AM,33.8,32.0,93,29.11,2.0,WNW,4.6,-,0.01,,Overcast,290,2014-02-14 09:15:00
4:35 AM,33.8,32.0,93,29.13,1.5,West,8.1,-,0.02,,Overcast,280,2014-02-14 09:35:00
4:55 AM,33.8,30.2,87,29.14,5.0,WNW,8.1,26.5,0.02,,Overcast,290,2014-02-14 09:55:00
5:15 AM,32.0,30.2,93,29.16,5.0,West,4.6,-,N/A,,Overcast,280,2014-02-14 10:15:00
5:35 AM,32.0,30.2,93,29.18,10.0,West,10.4,19.6,N/A,,Overcast,270,2014-02-14 10:35:00
5:55 AM,32.0,30.2,93,29.20,10.0,West,5.8,16.1,N/A,,Overcast,280,2014-02-14 10:55:00
6:15 AM,32.0,30.2,93,29.20,10.0,West,5.8,-,N/A,,Scattered Clouds,270,2014-02-14 11:15:00
6:35 AM,33.8,30.2,87,29.22,10.0,WNW,5.8,16.1,N/A,,Mostly Cloudy,300,2014-02-14 11:35:00
6:55 AM,33.8,30.2,87,29.24,10.0,West,11.5,21.9,N/A,,Overcast,270,2014-02-14 11:55:00
7:15 AM,33.8,30.2,87,29.25,10.0,WNW,8.1,23.0,N/A,,Overcast,300,2014-02-14 12:15:00
7:35 AM,33.8,30.2,87,29.27,10.0,WNW,4.6,-,N/A,,Scattered Clouds,300,2014-02-14 12:35:00
7:55 AM,35.6,33.8,93,29.29,10.0,West,10.4,-,N/A,,Clear,270,2014-02-14 12:55:00
8:15 AM,35.6,33.8,93,29.30,10.0,West,10.4,18.4,N/A,,Clear,270,2014-02-14 13:15:00
8:35 AM,35.6,32.0,87,29.32,10.0,West,13.8,25.3,N/A,,Partly Cloudy,270,2014-02-14 13:35:00
8:55 AM,35.6,32.0,87,29.34,10.0,West,16.1,20.7,N/A,,Scattered Clouds,260,2014-02-14 13:55:00
9:15 AM,37.4,32.0,81,29.35,10.0,West,16.1,24.2,N/A,,Mostly Cloudy,270,2014-02-14 14:15:00
9:35 AM,37.4,33.8,87,29.36,10.0,West,15.0,25.3,N/A,,Partly Cloudy,280,2014-02-14 14:35:00
9:55 AM,37.4,30.2,75,29.38,10.0,West,17.3,24.2,N/A,,Clear,270,2014-02-14 14:55:00
10:15 AM,37.4,28.4,70,29.39,10.0,West,20.7,27.6,N/A,,Clear,270,2014-02-14 15:15:00
10:35 AM,37.4,28.4,70,29.40,10.0,West,19.6,33.4,0.01,,Clear,270,2014-02-14 15:35:00
10:55 AM,37.4,28.4,70,29.41,10.0,West,16.1,32.2,0.01,,Clear,280,2014-02-14 15:55:00
11:15 AM,37.4,26.6,65,29.43,10.0,West,20.7,32.2,N/A,,Clear,270,2014-02-14 16:15:00
11:35 AM,39.2,26.6,61,29.44,10.0,West,20.7,32.2,N/A,,Clear,270,2014-02-14 16:35:00
11:55 AM,39.2,24.8,56,29.45,10.0,West,20.7,32.2,N/A,,Clear,280,2014-02-14 16:55:00
12:15 PM,39.2,24.8,56,29.46,10.0,West,17.3,29.9,N/A,,Clear,270,2014-02-14 17:15:00
12:35 PM,39.2,24.8,56,29.46,10.0,West,16.1,29.9,N/A,,Clear,270,2014-02-14 17:35:00
12:55 PM,41.0,26.6,57,29.47,10.0,West,24.2,34.5,N/A,,Partly Cloudy,270,2014-02-14 17:55:00
1:15 PM,41.0,26.6,57,29.48,10.0,West,21.9,36.8,0.01,,Mostly Cloudy,270,2014-02-14 18:15:00
1:35 PM,41.0,26.6,57,29.49,10.0,West,20.7,32.2,0.01,,Mostly Cloudy,270,2014-02-14 18:35:00
1:55 PM,39.2,26.6,61,29.50,10.0,West,17.3,26.5,0.01,,Overcast,270,2014-02-14 18:55:00
2:15 PM,41.0,26.6,57,29.51,10.0,West,21.9,35.7,N/A,,Mostly Cloudy,270,2014-02-14 19:15:00
2:35 PM,41.0,26.6,57,29.52,10.0,West,15.0,27.6,N/A,,Scattered Clouds,270,2014-02-14 19:35:00
2:55 PM,42.8,26.6,53,29.53,10.0,West,8.1,21.9,N/A,,Mostly Cloudy,270,2014-02-14 19:55:00
3:15 PM,41.0,26.6,57,29.54,10.0,West,6.9,23.0,N/A,,Overcast,280,2014-02-14 20:15:00
3:35 PM,41.0,26.6,57,29.56,10.0,West,8.1,18.4,N/A,,Mostly Cloudy,280,2014-02-14 20:35:00
3:55 PM,41.0,24.8,53,29.58,10.0,NW,5.8,-,N/A,,Mostly Cloudy,310,2014-02-14 20:55:00
4:15 PM,42.8,26.6,53,29.59,10.0,West,9.2,-,N/A,,Mostly Cloudy,270,2014-02-14 21:15:00
4:35 PM,42.8,26.6,53,29.59,10.0,West,8.1,43.7,0.15,,Mostly Cloudy,280,2014-02-14 21:35:00
4:55 PM,42.8,26.6,53,29.60,10.0,West,10.4,16.1,0.15,,Partly Cloudy,270,2014-02-14 21:55:00
5:15 PM,41.0,26.6,57,29.62,10.0,West,10.4,20.7,N/A,,Partly Cloudy,280,2014-02-14 22:15:00
5:35 PM,39.2,26.6,61,29.63,10.0,West,12.7,23.0,N/A,,Partly Cloudy,280,2014-02-14 22:35:00
5:55 PM,39.2,26.6,61,29.65,10.0,West,12.7,20.7,N/A,,Clear,270,2014-02-14 22:55:00
6:15 PM,39.2,26.6,61,29.67,10.0,West,12.7,20.7,N/A,,Clear,270,2014-02-14 23:15:00
6:35 PM,37.4,26.6,65,29.69,10.0,West,12.7,23.0,N/A,,Clear,270,2014-02-14 23:35:00
6:55 PM,37.4,26.6,65,29.70,10.0,West,13.8,18.4,N/A,,Clear,270,2014-02-14 23:55:00
7:15 PM,37.4,26.6,65,29.74,10.0,West,13.8,21.9,N/A,,Clear,270,2014-02-15 00:15:00
7:35 PM,37.4,26.6,65,29.77,10.0,West,11.5,18.4,N/A,,Scattered Clouds,270,2014-02-15 00:35:00
7:55 PM,37.4,26.6,65,29.77,10.0,West,9.2,16.1,N/A,,Overcast,280,2014-02-15 00:55:00
8:15 PM,37.4,26.6,65,29.77,10.0,West,6.9,-,N/A,,Mostly Cloudy,270,2014-02-15 01:15:00
8:35 PM,37.4,26.6,65,29.77,10.0,West,6.9,-,N/A,,Partly Cloudy,270,2014-02-15 01:35:00
8:55 PM,37.4,26.6,65,29.78,10.0,West,8.1,-,N/A,,Clear,270,2014-02-15 01:55:00
9:15 PM,37.4,28.4,70,29.78,10.0,West,5.8,-,N/A,,Clear,270,2014-02-15 02:15:00
9:35 PM,37.4,26.6,65,29.78,10.0,West,4.6,-,N/A,,Clear,270,2014-02-15 02:35:00
9:55 PM,37.4,26.6,65,29.78,10.0,SW,3.5,-,N/A,,Clear,230,2014-02-15 02:55:00
10:15 PM,37.4,26.6,65,29.78,10.0,WSW,3.5,-,N/A,,Clear,240,2014-02-15 03:15:00
10:35 PM,37.4,26.6,65,29.78,10.0,West,5.8,-,N/A,,Clear,260,2014-02-15 03:35:00
10:55 PM,37.4,26.6,65,29.79,10.0,WSW,4.6,-,N/A,,Clear,250,2014-02-15 03:55:00
11:15 PM,35.6,26.6,70,29.78,10.0,WSW,4.6,-,N/A,,Clear,250,2014-02-15 04:15:00
11:35 PM,37.4,24.8,60,29.79,10.0,West,4.6,-,N/A,,Clear,270,2014-02-15 04:35:00
11:55 PM,37.4,24.8,60,29.80,10.0,WSW,5.8,-,N/A,,Partly Cloudy,240,2014-02-15 04:55:00